createdAt,value
2022-09-12T00:01:59.324Z,5.47
2022-09-12T00:07:00.575Z,5.03
2022-09-12T00:12:01.965Z,4.93
2022-09-12T00:17:03.306Z,4.63
2022-09-12T00:22:04.564Z,4.97
2022-09-12T00:27:05.817Z,4.85
2022-09-12T00:32:07.079Z,4.40
2022-09-12T00:37:08.303Z,4.37
2022-09-12T00:42:10.052Z,5.15
2022-09-12T00:47:14.694Z,4.63
2022-09-12T00:52:21.807Z,5.23
2022-09-12T00:57:27.710Z,5.38
2022-09-12T01:02:29.110Z,4.80
2022-09-12T01:07:30.454Z,5.30
2022-09-12T01:12:31.958Z,4.50
2022-09-12T01:17:43.908Z,5.43
2022-09-12T01:22:45.137Z,5.47
2022-09-12T01:28:05.337Z,5.10
2022-09-12T01:33:12.593Z,5.55
2022-09-12T01:38:27.447Z,5.40
2022-09-12T01:43:31.848Z,5.10
2022-09-12T01:48:36.176Z,5.32
2022-09-12T01:53:48.704Z,5.30
2022-09-12T01:58:53.319Z,5.07
2022-09-12T02:03:54.537Z,5.13
2022-09-12T02:09:18.282Z,5.37
2022-09-12T02:14:24.288Z,5.32
2022-09-12T02:19:28.510Z,5.33
2022-09-12T02:24:31.989Z,5.07
2022-09-12T02:29:33.279Z,5.10
2022-09-12T02:34:34.500Z,4.70
2022-09-12T02:39:35.978Z,5.03
2022-09-12T02:44:37.504Z,5.20
2022-09-12T02:49:38.833Z,5.00
2022-09-12T02:54:40.377Z,4.80
2022-09-12T02:59:41.938Z,4.88
2022-09-12T03:04:55.538Z,5.30
2022-09-12T03:10:08.988Z,5.20
2022-09-12T03:15:14.906Z,5.20
2022-09-12T03:20:36.792Z,5.60
2022-09-12T03:25:38.114Z,5.67
2022-09-12T03:30:40.628Z,5.10
2022-09-12T03:35:42.003Z,4.97
2022-09-12T03:40:43.339Z,5.13
2022-09-12T03:45:44.646Z,5.32
2022-09-12T03:50:45.897Z,5.37
2022-09-12T03:55:47.156Z,5.23
2022-09-12T04:00:48.652Z,5.75
2022-09-12T04:05:50.048Z,5.57
2022-09-12T04:10:51.274Z,5.27
2022-09-12T04:15:56.378Z,5.60
2022-09-12T04:20:57.983Z,5.20
2022-09-12T04:26:00.502Z,5.17
2022-09-12T04:31:03.862Z,5.82
2022-09-12T04:36:06.773Z,6.00
2022-09-12T04:41:17.294Z,5.70
2022-09-12T04:46:22.042Z,5.50
2022-09-12T04:51:28.469Z,5.30
2022-09-12T04:56:30.127Z,5.40
2022-09-12T05:01:31.528Z,5.80
2022-09-12T05:06:34.616Z,5.53
2022-09-12T05:12:02.799Z,6.15
2022-09-12T05:17:00.692Z,5.67
2022-09-12T05:22:02.458Z,6.40
2022-09-12T05:27:04.745Z,5.93
2022-09-12T05:32:06.460Z,5.90
2022-09-12T05:37:07.751Z,5.37
2022-09-12T05:42:09.118Z,5.53
2022-09-12T05:47:11.491Z,5.70
2022-09-12T05:52:12.753Z,6.33
2022-09-12T05:57:13.994Z,6.45
2022-09-12T06:02:15.957Z,7.47
2022-09-12T06:07:17.224Z,6.77
2022-09-12T06:12:18.594Z,8.95
2022-09-12T06:17:19.857Z,10.27
2022-09-12T06:22:21.306Z,7.20
2022-09-12T06:27:22.557Z,7.03
2022-09-12T06:32:23.834Z,7.67
2022-09-12T06:37:25.067Z,7.00
2022-09-12T06:42:26.293Z,7.18
2022-09-12T06:47:28.126Z,6.87
2022-09-12T06:52:29.435Z,5.93
2022-09-12T06:57:31.465Z,5.32
2022-09-12T07:02:32.745Z,6.88
2022-09-12T07:07:35.795Z,5.57
2022-09-12T07:12:37.058Z,5.10
2022-09-12T07:17:38.463Z,6.03
2022-09-12T07:22:39.811Z,4.63
2022-09-12T07:27:41.081Z,4.35
2022-09-12T07:32:42.340Z,8.25
2022-09-12T07:37:43.676Z,4.90
2022-09-12T07:42:44.991Z,3.97
2022-09-12T07:47:46.320Z,4.47
2022-09-12T07:52:47.917Z,4.60
2022-09-12T07:57:49.832Z,4.27
2022-09-12T08:02:51.940Z,4.65
2022-09-12T08:07:57.580Z,3.92
2022-09-12T08:12:59.112Z,6.83
2022-09-12T08:18:00.354Z,3.65
2022-09-12T08:23:01.673Z,3.70
2022-09-12T08:28:02.934Z,3.23
2022-09-12T08:33:04.187Z,3.50
2022-09-12T08:38:05.457Z,3.78
2022-09-12T08:43:14.051Z,3.70
2022-09-12T08:48:15.415Z,3.70
2022-09-12T08:53:18.699Z,3.75
2022-09-12T08:58:22.496Z,3.80
2022-09-12T09:03:29.883Z,3.40
2022-09-12T09:08:37.599Z,3.58
2022-09-12T09:14:04.439Z,3.22
2022-09-12T09:19:12.569Z,3.40
2022-09-12T09:24:16.610Z,3.92
2022-09-12T09:29:19.186Z,3.40
2022-09-12T09:34:24.856Z,3.10
2022-09-12T09:39:26.454Z,3.17
2022-09-12T09:44:31.290Z,3.13
2022-09-12T09:49:34.193Z,3.00
2022-09-12T09:54:35.841Z,3.57
2022-09-12T09:59:37.118Z,3.10
2022-09-12T10:04:52.483Z,3.55
2022-09-12T10:10:05.639Z,3.40
2022-09-12T10:15:26.489Z,3.58
2022-09-12T10:20:46.399Z,3.40
2022-09-12T10:25:50.074Z,3.53
2022-09-12T10:30:53.031Z,3.00
2022-09-12T10:35:55.136Z,2.45
2022-09-12T10:40:59.804Z,2.65
2022-09-12T10:46:16.468Z,3.30
2022-09-12T10:51:23.930Z,2.60
2022-09-12T10:57:03.530Z,2.40
2022-09-12T11:02:22.898Z,2.30
2022-09-12T11:07:42.847Z,2.40
2022-09-12T11:12:51.344Z,3.20
2022-09-12T11:18:11.077Z,3.43
2022-09-12T11:23:30.752Z,2.63
2022-09-12T11:28:46.687Z,2.30
2022-09-12T11:33:56.482Z,2.33
2022-09-12T11:39:14.904Z,2.20
2022-09-12T11:44:16.145Z,2.25
2022-09-12T11:49:36.397Z,1.77
2022-09-12T11:54:48.147Z,2.90
2022-09-12T11:59:56.529Z,1.80
2022-09-12T12:05:04.288Z,2.17
2022-09-12T12:10:05.898Z,4.57
2022-09-12T12:15:07.492Z,1.90
2022-09-12T12:20:15.789Z,1.95
2022-09-12T12:25:21.432Z,2.03
2022-09-12T12:30:29.574Z,1.90
2022-09-12T12:35:42.108Z,1.70
2022-09-12T12:40:43.521Z,1.77
2022-09-12T12:45:46.767Z,1.70
2022-09-12T12:50:48.430Z,1.88
2022-09-12T12:55:54.540Z,1.60
2022-09-12T13:01:14.499Z,1.57
2022-09-12T13:06:45.197Z,1.70
2022-09-12T13:11:47.128Z,1.80
2022-09-12T13:16:59.771Z,1.90
2022-09-12T13:22:02.138Z,1.70
2022-09-12T13:27:04.140Z,1.50
2022-09-12T13:32:06.456Z,1.50
2022-09-12T13:37:24.178Z,1.40
2022-09-12T13:42:32.687Z,1.60
2022-09-12T13:47:39.337Z,1.63
2022-09-12T13:52:40.663Z,1.57
2022-09-12T13:57:42.008Z,1.83
2022-09-12T14:02:43.617Z,1.50
2022-09-12T14:07:53.290Z,1.92
2022-09-12T14:12:57.178Z,2.00
2022-09-12T14:18:01.426Z,2.40
2022-09-12T14:23:18.182Z,2.88
2022-09-12T14:28:23.679Z,1.60
2022-09-12T14:33:25.120Z,1.92
2022-09-12T14:38:32.022Z,1.50
2022-09-12T14:43:38.083Z,1.60
2022-09-12T14:48:42.619Z,1.60
2022-09-12T14:53:47.845Z,1.75
2022-09-12T14:58:49.632Z,1.50
2022-09-12T15:03:53.302Z,2.20
2022-09-12T15:08:55.487Z,1.65
2022-09-12T15:13:56.830Z,2.53
2022-09-12T15:18:58.142Z,1.97
2022-09-12T15:23:59.420Z,1.70
2022-09-12T15:29:00.924Z,1.30
2022-09-12T15:34:02.384Z,1.60
2022-09-12T15:39:03.750Z,1.93
2022-09-12T15:44:05.572Z,1.80
2022-09-12T15:49:10.006Z,1.50
2022-09-12T15:54:13.839Z,1.87
2022-09-12T15:59:15.626Z,1.70
2022-09-12T16:04:20.717Z,1.85
2022-09-12T16:09:23.523Z,2.97
2022-09-12T16:14:25.298Z,1.50
2022-09-12T16:19:26.735Z,2.15
2022-09-12T16:24:28.179Z,2.23
2022-09-12T16:29:31.351Z,1.70
2022-09-12T16:34:32.989Z,1.90
2022-09-12T16:39:34.727Z,2.53
2022-09-12T16:44:35.997Z,2.30
2022-09-12T16:49:37.254Z,1.98
2022-09-12T16:54:38.512Z,2.20
2022-09-12T16:59:39.795Z,3.20
2022-09-12T17:04:41.294Z,2.10
2022-09-12T17:09:46.260Z,3.47
2022-09-12T17:14:49.291Z,2.20
2022-09-12T17:20:07.615Z,2.27
2022-09-12T17:25:09.399Z,2.45
2022-09-12T17:30:13.585Z,2.00
2022-09-12T17:35:14.959Z,2.40
2022-09-12T17:40:16.339Z,2.45
2022-09-12T17:45:18.911Z,2.30
2022-09-12T17:50:31.820Z,2.47
2022-09-12T17:55:41.326Z,3.20
2022-09-12T18:01:01.446Z,2.58
2022-09-12T18:06:02.749Z,2.80
2022-09-12T18:11:04.975Z,3.10
2022-09-12T18:16:07.294Z,2.00
2022-09-12T18:21:10.209Z,2.27
2022-09-12T18:26:13.323Z,2.43
2022-09-12T18:31:19.320Z,2.63
2022-09-12T18:36:21.277Z,3.92
2022-09-12T18:41:23.070Z,1.90
2022-09-12T18:46:24.919Z,2.20
2022-09-12T18:51:31.309Z,2.28
2022-09-12T18:56:34.292Z,2.40
2022-09-12T19:01:36.886Z,4.25
2022-09-12T19:06:39.616Z,2.40
2022-09-12T19:11:48.510Z,2.27
2022-09-12T19:16:50.789Z,2.50
2022-09-12T19:21:52.180Z,2.55
2022-09-12T19:26:53.466Z,2.17
2022-09-12T19:31:56.253Z,2.33
2022-09-12T19:36:59.365Z,2.08
2022-09-12T19:42:00.724Z,2.58
2022-09-12T19:47:02.081Z,2.47
2022-09-12T19:52:03.543Z,2.83
2022-09-12T19:57:05.906Z,2.80
2022-09-12T20:02:07.619Z,2.63
2022-09-12T20:07:09.027Z,2.83
2022-09-12T20:12:10.564Z,2.90
2022-09-12T20:17:11.985Z,2.30
2022-09-12T20:22:13.312Z,2.53
2022-09-12T20:27:15.014Z,2.65
2022-09-12T20:32:18.220Z,2.78
2022-09-12T20:37:19.794Z,3.20
2022-09-12T20:42:21.040Z,2.53
2022-09-12T20:47:22.312Z,2.50
2022-09-12T20:52:23.712Z,2.97
2022-09-12T20:57:25.082Z,2.53
2022-09-12T21:02:26.613Z,2.80
2022-09-12T21:07:27.969Z,3.08
2022-09-12T21:12:29.211Z,2.50
2022-09-12T21:17:30.657Z,2.58
2022-09-12T21:22:32.269Z,2.60
2022-09-12T21:27:33.644Z,2.70
2022-09-12T21:32:35.847Z,3.00
2022-09-12T21:37:37.150Z,3.22
2022-09-12T21:42:38.427Z,2.47
2022-09-12T21:47:40.013Z,2.57
2022-09-12T21:52:41.281Z,2.85
2022-09-12T21:57:42.536Z,2.75
2022-09-12T22:02:43.929Z,2.73
2022-09-12T22:07:45.189Z,2.72
2022-09-12T22:12:46.656Z,2.70
2022-09-12T22:17:48.052Z,3.00
2022-09-12T22:23:07.814Z,2.92
2022-09-12T22:28:09.048Z,2.72
2022-09-12T22:33:10.326Z,2.83
2022-09-12T22:38:11.590Z,2.90
2022-09-12T22:43:12.936Z,3.22
2022-09-12T22:48:14.229Z,3.20
2022-09-12T22:53:15.515Z,2.83
2022-09-12T22:58:16.790Z,3.08
2022-09-12T23:03:18.287Z,2.80
2022-09-12T23:08:19.585Z,3.20
2022-09-12T23:31:17.448Z,3.07
2022-09-12T23:36:18.842Z,3.20
2022-09-12T23:41:20.152Z,3.55
2022-09-12T23:46:21.905Z,3.07
2022-09-12T23:51:23.225Z,3.10
2022-09-12T23:56:24.910Z,3.30
